sensor_id;sensor_type;location;lat;lon;timestamp;temperature;humidity
74376;HTU21D;62812;55.188;61.302;2023-10-09T00:01:43;9.74;73.07
74376;HTU21D;62812;55.188;61.302;2023-10-09T00:04:14;9.74;72.90
74376;HTU21D;62812;55.188;61.302;2023-10-09T00:06:42;9.74;72.89
74376;HTU21D;62812;55.188;61.302;2023-10-09T00:09:09;9.69;73.38
74376;HTU21D;62812;55.188;61.302;2023-10-09T00:11:46;9.70;73.08
74376;HTU21D;62812;55.188;61.302;2023-10-09T00:14:14;9.68;73.51
74376;HTU21D;62812;55.188;61.302;2023-10-09T00:16:44;9.64;73.67
74376;HTU21D;62812;55.188;61.302;2023-10-09T00:19:27;9.59;73.64
74376;HTU21D;62812;55.188;61.302;2023-10-09T00:21:59;9.56;73.69
74376;HTU21D;62812;55.188;61.302;2023-10-09T00:24:32;9.55;73.77
74376;HTU21D;62812;55.188;61.302;2023-10-09T00:27:00;9.56;73.70
74376;HTU21D;62812;55.188;61.302;2023-10-09T00:29:47;9.52;73.29
74376;HTU21D;62812;55.188;61.302;2023-10-09T00:32:15;9.57;73.48
74376;HTU21D;62812;55.188;61.302;2023-10-09T00:34:53;9.59;73.31
74376;HTU21D;62812;55.188;61.302;2023-10-09T00:37:24;9.54;73.73
74376;HTU21D;62812;55.188;61.302;2023-10-09T00:39:52;9.49;73.69
74376;HTU21D;62812;55.188;61.302;2023-10-09T00:42:24;9.47;74.12
74376;HTU21D;62812;55.188;61.302;2023-10-09T00:44:56;9.45;74.60
74376;HTU21D;62812;55.188;61.302;2023-10-09T00:47:23;9.41;74.57
74376;HTU21D;62812;55.188;61.302;2023-10-09T00:49:54;9.39;74.17
74376;HTU21D;62812;55.188;61.302;2023-10-09T00:52:29;9.41;74.15
74376;HTU21D;62812;55.188;61.302;2023-10-09T00:55:17;9.44;73.96
74376;HTU21D;62812;55.188;61.302;2023-10-09T01:01:20;9.40;74.11
74376;HTU21D;62812;55.188;61.302;2023-10-09T01:03:52;9.37;74.15
74376;HTU21D;62812;55.188;61.302;2023-10-09T01:06:19;9.34;74.07
74376;HTU21D;62812;55.188;61.302;2023-10-09T01:08:47;9.32;73.74
74376;HTU21D;62812;55.188;61.302;2023-10-09T01:11:23;9.29;74.60
74376;HTU21D;62812;55.188;61.302;2023-10-09T01:13:56;9.30;74.10
74376;HTU21D;62812;55.188;61.302;2023-10-09T01:16:37;9.33;73.79
74376;HTU21D;62812;55.188;61.302;2023-10-09T01:19:04;9.35;73.93
74376;HTU21D;62812;55.188;61.302;2023-10-09T01:21:39;9.34;74.06
74376;HTU21D;62812;55.188;61.302;2023-10-09T01:24:10;9.35;73.93
74376;HTU21D;62812;55.188;61.302;2023-10-09T01:26:38;9.39;73.72
74376;HTU21D;62812;55.188;61.302;2023-10-09T01:29:13;9.42;73.34
74376;HTU21D;62812;55.188;61.302;2023-10-09T01:31:41;9.44;73.61
74376;HTU21D;62812;55.188;61.302;2023-10-09T01:34:23;9.41;73.61
74376;HTU21D;62812;55.188;61.302;2023-10-09T01:37:09;9.41;73.91
74376;HTU21D;62812;55.188;61.302;2023-10-09T01:39:39;9.39;73.71
74376;HTU21D;62812;55.188;61.302;2023-10-09T01:42:08;9.36;73.71
74376;HTU21D;62812;55.188;61.302;2023-10-09T01:44:36;9.32;74.55
74376;HTU21D;62812;55.188;61.302;2023-10-09T01:47:09;9.30;74.61
74376;HTU21D;62812;55.188;61.302;2023-10-09T01:49:40;9.29;74.42
74376;HTU21D;62812;55.188;61.302;2023-10-09T01:52:10;9.27;74.51
74376;HTU21D;62812;55.188;61.302;2023-10-09T01:54:44;9.29;74.13
74376;HTU21D;62812;55.188;61.302;2023-10-09T01:57:16;9.30;74.47
74376;HTU21D;62812;55.188;61.302;2023-10-09T01:59:49;9.29;73.94
74376;HTU21D;62812;55.188;61.302;2023-10-09T02:02:16;9.32;74.04
74376;HTU21D;62812;55.188;61.302;2023-10-09T02:05:03;9.34;73.51
74376;HTU21D;62812;55.188;61.302;2023-10-09T02:07:42;9.34;73.66
74376;HTU21D;62812;55.188;61.302;2023-10-09T02:10:20;9.38;73.26
74376;HTU21D;62812;55.188;61.302;2023-10-09T02:12:57;9.41;73.04
74376;HTU21D;62812;55.188;61.302;2023-10-09T02:15:25;9.41;73.20
74376;HTU21D;62812;55.188;61.302;2023-10-09T02:18:07;9.46;72.62
74376;HTU21D;62812;55.188;61.302;2023-10-09T02:20:43;9.49;72.55
74376;HTU21D;62812;55.188;61.302;2023-10-09T02:23:14;9.52;73.17
74376;HTU21D;62812;55.188;61.302;2023-10-09T02:25:45;9.54;72.50
74376;HTU21D;62812;55.188;61.302;2023-10-09T02:28:12;9.55;72.19
74376;HTU21D;62812;55.188;61.302;2023-10-09T02:30:45;9.56;72.26
74376;HTU21D;62812;55.188;61.302;2023-10-09T02:33:15;9.60;71.96
74376;HTU21D;62812;55.188;61.302;2023-10-09T02:35:54;9.63;71.68
74376;HTU21D;62812;55.188;61.302;2023-10-09T02:38:21;9.66;71.60
74376;HTU21D;62812;55.188;61.302;2023-10-09T02:40:52;9.69;71.35
74376;HTU21D;62812;55.188;61.302;2023-10-09T02:43:32;9.70;71.50
74376;HTU21D;62812;55.188;61.302;2023-10-09T02:46:12;9.70;71.47
74376;HTU21D;62812;55.188;61.302;2023-10-09T02:48:47;9.71;71.58
74376;HTU21D;62812;55.188;61.302;2023-10-09T02:51:20;9.72;71.77
74376;HTU21D;62812;55.188;61.302;2023-10-09T02:53:52;9.74;71.56
74376;HTU21D;62812;55.188;61.302;2023-10-09T02:56:21;9.77;71.60
74376;HTU21D;62812;55.188;61.302;2023-10-09T02:58:51;9.78;71.49
74376;HTU21D;62812;55.188;61.302;2023-10-09T03:01:19;9.77;71.92
74376;HTU21D;62812;55.188;61.302;2023-10-09T03:03:46;9.79;71.32
74376;HTU21D;62812;55.188;61.302;2023-10-09T03:06:14;9.82;71.68
74376;HTU21D;62812;55.188;61.302;2023-10-09T03:08:52;9.82;71.86
74376;HTU21D;62812;55.188;61.302;2023-10-09T03:11:22;9.82;72.07
74376;HTU21D;62812;55.188;61.302;2023-10-09T03:13:50;9.82;71.96
74376;HTU21D;62812;55.188;61.302;2023-10-09T03:16:19;9.86;71.90
74376;HTU21D;62812;55.188;61.302;2023-10-09T03:18:46;9.92;72.16
74376;HTU21D;62812;55.188;61.302;2023-10-09T03:21:13;9.92;72.68
74376;HTU21D;62812;55.188;61.302;2023-10-09T03:23:41;9.95;72.31
74376;HTU21D;62812;55.188;61.302;2023-10-09T03:26:10;9.91;72.10
74376;HTU21D;62812;55.188;61.302;2023-10-09T03:28:38;9.94;71.85
74376;HTU21D;62812;55.188;61.302;2023-10-09T03:31:06;9.93;73.24
74376;HTU21D;62812;55.188;61.302;2023-10-09T03:33:33;9.94;73.28
74376;HTU21D;62812;55.188;61.302;2023-10-09T03:36:00;9.94;73.26
74376;HTU21D;62812;55.188;61.302;2023-10-09T03:38:26;9.97;72.23
74376;HTU21D;62812;55.188;61.302;2023-10-09T03:41:02;9.96;73.22
74376;HTU21D;62812;55.188;61.302;2023-10-09T03:43:33;9.98;72.90
74376;HTU21D;62812;55.188;61.302;2023-10-09T03:46:06;10.03;72.28
74376;HTU21D;62812;55.188;61.302;2023-10-09T03:48:41;10.08;73.04
74376;HTU21D;62812;55.188;61.302;2023-10-09T03:51:11;10.12;73.15
74376;HTU21D;62812;55.188;61.302;2023-10-09T03:53:39;10.18;72.89
74376;HTU21D;62812;55.188;61.302;2023-10-09T03:56:07;10.22;72.93
74376;HTU21D;62812;55.188;61.302;2023-10-09T03:58:43;10.28;72.82
74376;HTU21D;62812;55.188;61.302;2023-10-09T04:01:13;10.36;71.69
74376;HTU21D;62812;55.188;61.302;2023-10-09T04:03:55;10.45;70.97
74376;HTU21D;62812;55.188;61.302;2023-10-09T04:06:26;10.48;71.83
74376;HTU21D;62812;55.188;61.302;2023-10-09T04:09:04;10.50;71.86
74376;HTU21D;62812;55.188;61.302;2023-10-09T04:11:40;10.46;71.53
74376;HTU21D;62812;55.188;61.302;2023-10-09T04:14:12;10.48;71.77
74376;HTU21D;62812;55.188;61.302;2023-10-09T04:16:52;10.52;71.40
74376;HTU21D;62812;55.188;61.302;2023-10-09T04:19:22;10.64;71.56
74376;HTU21D;62812;55.188;61.302;2023-10-09T04:21:49;10.78;71.49
74376;HTU21D;62812;55.188;61.302;2023-10-09T04:24:16;10.87;71.44
74376;HTU21D;62812;55.188;61.302;2023-10-09T04:26:43;11.02;70.45
74376;HTU21D;62812;55.188;61.302;2023-10-09T04:29:14;11.17;70.48
74376;HTU21D;62812;55.188;61.302;2023-10-09T04:31:56;11.26;70.70
74376;HTU21D;62812;55.188;61.302;2023-10-09T04:34:23;11.36;69.89
74376;HTU21D;62812;55.188;61.302;2023-10-09T04:36:56;11.49;69.74
74376;HTU21D;62812;55.188;61.302;2023-10-09T04:39:45;11.68;69.68
74376;HTU21D;62812;55.188;61.302;2023-10-09T04:42:27;11.94;68.55
74376;HTU21D;62812;55.188;61.302;2023-10-09T04:45:05;12.11;66.70
74376;HTU21D;62812;55.188;61.302;2023-10-09T04:47:36;12.23;66.92
74376;HTU21D;62812;55.188;61.302;2023-10-09T04:50:05;12.49;66.30
74376;HTU21D;62812;55.188;61.302;2023-10-09T04:52:36;12.61;65.03
74376;HTU21D;62812;55.188;61.302;2023-10-09T04:55:03;12.71;64.33
74376;HTU21D;62812;55.188;61.302;2023-10-09T04:57:33;12.79;65.50
74376;HTU21D;62812;55.188;61.302;2023-10-09T05:00:10;12.80;64.79
74376;HTU21D;62812;55.188;61.302;2023-10-09T05:02:55;12.81;63.02
74376;HTU21D;62812;55.188;61.302;2023-10-09T05:05:23;12.61;63.50
74376;HTU21D;62812;55.188;61.302;2023-10-09T05:08:17;12.47;63.82
74376;HTU21D;62812;55.188;61.302;2023-10-09T05:10:48;12.45;63.44
74376;HTU21D;62812;55.188;61.302;2023-10-09T05:13:25;12.33;64.24
74376;HTU21D;62812;55.188;61.302;2023-10-09T05:16:11;12.27;63.64
74376;HTU21D;62812;55.188;61.302;2023-10-09T05:18:56;12.20;62.24
74376;HTU21D;62812;55.188;61.302;2023-10-09T05:21:29;12.10;63.96
74376;HTU21D;62812;55.188;61.302;2023-10-09T05:23:59;11.99;64.51
74376;HTU21D;62812;55.188;61.302;2023-10-09T05:26:39;11.97;62.34
74376;HTU21D;62812;55.188;61.302;2023-10-09T05:29:17;11.99;64.14
74376;HTU21D;62812;55.188;61.302;2023-10-09T05:32:07;11.88;62.28
74376;HTU21D;62812;55.188;61.302;2023-10-09T05:34:41;11.84;61.47
74376;HTU21D;62812;55.188;61.302;2023-10-09T05:37:28;11.93;65.50
74376;HTU21D;62812;55.188;61.302;2023-10-09T05:40:10;12.05;62.00
74376;HTU21D;62812;55.188;61.302;2023-10-09T05:42:42;12.18;61.75
74376;HTU21D;62812;55.188;61.302;2023-10-09T05:45:11;12.29;63.93
74376;HTU21D;62812;55.188;61.302;2023-10-09T05:47:44;12.36;63.78
74376;HTU21D;62812;55.188;61.302;2023-10-09T05:50:26;12.33;60.42
74376;HTU21D;62812;55.188;61.302;2023-10-09T05:52:53;12.29;60.33
74376;HTU21D;62812;55.188;61.302;2023-10-09T05:55:21;12.32;62.45
74376;HTU21D;62812;55.188;61.302;2023-10-09T05:57:50;12.26;60.89
74376;HTU21D;62812;55.188;61.302;2023-10-09T06:00:23;12.17;60.13
74376;HTU21D;62812;55.188;61.302;2023-10-09T06:03:08;12.02;59.70
74376;HTU21D;62812;55.188;61.302;2023-10-09T06:05:49;11.98;60.15
74376;HTU21D;62812;55.188;61.302;2023-10-09T06:08:26;12.05;61.87
74376;HTU21D;62812;55.188;61.302;2023-10-09T06:11:25;12.08;58.80
74376;HTU21D;62812;55.188;61.302;2023-10-09T06:14:01;12.21;60.60
74376;HTU21D;62812;55.188;61.302;2023-10-09T06:16:39;12.37;59.76
74376;HTU21D;62812;55.188;61.302;2023-10-09T06:19:10;12.50;61.42
74376;HTU21D;62812;55.188;61.302;2023-10-09T06:21:48;12.40;58.54
74376;HTU21D;62812;55.188;61.302;2023-10-09T06:24:30;12.45;62.07
74376;HTU21D;62812;55.188;61.302;2023-10-09T06:27:07;12.51;58.39
74376;HTU21D;62812;55.188;61.302;2023-10-09T06:29:41;12.51;62.60
74376;HTU21D;62812;55.188;61.302;2023-10-09T06:32:11;12.59;60.35
74376;HTU21D;62812;55.188;61.302;2023-10-09T06:34:44;12.61;59.89
74376;HTU21D;62812;55.188;61.302;2023-10-09T06:37:13;12.59;58.19
74376;HTU21D;62812;55.188;61.302;2023-10-09T06:40:01;12.55;59.48
74376;HTU21D;62812;55.188;61.302;2023-10-09T06:43:02;12.50;61.34
74376;HTU21D;62812;55.188;61.302;2023-10-09T06:45:35;12.44;58.20
74376;HTU21D;62812;55.188;61.302;2023-10-09T06:48:11;12.35;57.40
74376;HTU21D;62812;55.188;61.302;2023-10-09T06:51:02;12.42;62.91
74376;HTU21D;62812;55.188;61.302;2023-10-09T06:53:49;12.56;61.49
74376;HTU21D;62812;55.188;61.302;2023-10-09T06:56:22;12.62;58.41
74376;HTU21D;62812;55.188;61.302;2023-10-09T06:58:51;12.45;57.06
74376;HTU21D;62812;55.188;61.302;2023-10-09T07:01:56;12.41;61.27
74376;HTU21D;62812;55.188;61.302;2023-10-09T07:04:41;12.27;58.63
74376;HTU21D;62812;55.188;61.302;2023-10-09T07:07:08;12.20;58.35
74376;HTU21D;62812;55.188;61.302;2023-10-09T07:09:40;12.04;58.46
74376;HTU21D;62812;55.188;61.302;2023-10-09T07:12:32;11.96;59.35
74376;HTU21D;62812;55.188;61.302;2023-10-09T07:15:00;11.98;61.15
74376;HTU21D;62812;55.188;61.302;2023-10-09T07:17:50;12.01;61.75
74376;HTU21D;62812;55.188;61.302;2023-10-09T07:20:19;11.98;60.12
74376;HTU21D;62812;55.188;61.302;2023-10-09T07:23:07;11.96;58.51
74376;HTU21D;62812;55.188;61.302;2023-10-09T07:25:45;12.01;61.12
74376;HTU21D;62812;55.188;61.302;2023-10-09T07:28:22;12.15;61.52
74376;HTU21D;62812;55.188;61.302;2023-10-09T07:31:16;12.29;61.84
74376;HTU21D;62812;55.188;61.302;2023-10-09T07:33:52;12.47;59.97
74376;HTU21D;62812;55.188;61.302;2023-10-09T07:36:23;12.47;60.13
74376;HTU21D;62812;55.188;61.302;2023-10-09T07:39:01;12.50;59.11
74376;HTU21D;62812;55.188;61.302;2023-10-09T07:41:33;12.52;63.35
74376;HTU21D;62812;55.188;61.302;2023-10-09T07:44:00;12.55;57.14
74376;HTU21D;62812;55.188;61.302;2023-10-09T07:46:47;12.69;62.05
74376;HTU21D;62812;55.188;61.302;2023-10-09T07:49:39;12.69;56.05
74376;HTU21D;62812;55.188;61.302;2023-10-09T07:52:08;12.50;56.63
74376;HTU21D;62812;55.188;61.302;2023-10-09T07:54:34;12.41;60.10
74376;HTU21D;62812;55.188;61.302;2023-10-09T07:57:07;12.42;57.77
74376;HTU21D;62812;55.188;61.302;2023-10-09T07:59:42;12.27;57.04
74376;HTU21D;62812;55.188;61.302;2023-10-09T08:02:21;12.05;57.01
74376;HTU21D;62812;55.188;61.302;2023-10-09T08:04:59;12.00;57.35
74376;HTU21D;62812;55.188;61.302;2023-10-09T08:07:30;12.01;61.81
74376;HTU21D;62812;55.188;61.302;2023-10-09T08:10:20;12.15;58.38
74376;HTU21D;62812;55.188;61.302;2023-10-09T08:12:49;12.29;62.28
74376;HTU21D;62812;55.188;61.302;2023-10-09T08:15:16;12.30;58.39
74376;HTU21D;62812;55.188;61.302;2023-10-09T08:17:46;12.37;60.24
74376;HTU21D;62812;55.188;61.302;2023-10-09T08:20:30;12.46;60.70
74376;HTU21D;62812;55.188;61.302;2023-10-09T08:23:17;12.57;60.21
74376;HTU21D;62812;55.188;61.302;2023-10-09T08:26:15;12.55;61.45
74376;HTU21D;62812;55.188;61.302;2023-10-09T08:28:45;12.55;58.18
74376;HTU21D;62812;55.188;61.302;2023-10-09T08:31:16;12.57;57.97
74376;HTU21D;62812;55.188;61.302;2023-10-09T08:34:01;12.45;56.82
74376;HTU21D;62812;55.188;61.302;2023-10-09T08:36:35;12.44;60.67
74376;HTU21D;62812;55.188;61.302;2023-10-09T08:39:07;12.41;55.22
74376;HTU21D;62812;55.188;61.302;2023-10-09T08:41:51;12.26;55.83
74376;HTU21D;62812;55.188;61.302;2023-10-09T08:44:28;12.21;57.80
74376;HTU21D;62812;55.188;61.302;2023-10-09T08:47:00;12.23;56.97
74376;HTU21D;62812;55.188;61.302;2023-10-09T08:49:45;12.42;60.38
74376;HTU21D;62812;55.188;61.302;2023-10-09T08:52:21;12.50;57.51
74376;HTU21D;62812;55.188;61.302;2023-10-09T08:54:52;12.42;55.80
74376;HTU21D;62812;55.188;61.302;2023-10-09T08:57:19;12.43;57.49
74376;HTU21D;62812;55.188;61.302;2023-10-09T08:59:56;12.47;60.41
74376;HTU21D;62812;55.188;61.302;2023-10-09T09:02:24;12.63;58.00
74376;HTU21D;62812;55.188;61.302;2023-10-09T09:04:56;12.70;57.58
74376;HTU21D;62812;55.188;61.302;2023-10-09T09:07:33;12.64;54.81
74376;HTU21D;62812;55.188;61.302;2023-10-09T09:10:07;12.52;60.07
74376;HTU21D;62812;55.188;61.302;2023-10-09T09:13:03;12.31;50.88
74376;HTU21D;62812;55.188;61.302;2023-10-09T09:15:38;12.21;50.82
74376;HTU21D;62812;55.188;61.302;2023-10-09T09:18:08;12.20;53.83
74376;HTU21D;62812;55.188;61.302;2023-10-09T09:20:45;12.35;57.85
74376;HTU21D;62812;55.188;61.302;2023-10-09T09:23:13;12.43;54.75
74376;HTU21D;62812;55.188;61.302;2023-10-09T09:25:51;12.34;50.20
74376;HTU21D;62812;55.188;61.302;2023-10-09T09:28:34;12.32;52.71
74376;HTU21D;62812;55.188;61.302;2023-10-09T09:31:10;12.40;53.11
74376;HTU21D;62812;55.188;61.302;2023-10-09T09:33:56;12.52;56.45
74376;HTU21D;62812;55.188;61.302;2023-10-09T09:36:28;12.57;52.43
74376;HTU21D;62812;55.188;61.302;2023-10-09T09:39:00;12.67;57.80
74376;HTU21D;62812;55.188;61.302;2023-10-09T09:41:33;12.82;55.68
74376;HTU21D;62812;55.188;61.302;2023-10-09T09:44:04;12.76;52.72
74376;HTU21D;62812;55.188;61.302;2023-10-09T09:46:39;12.63;54.80
74376;HTU21D;62812;55.188;61.302;2023-10-09T09:49:08;12.63;52.07
74376;HTU21D;62812;55.188;61.302;2023-10-09T09:51:43;12.64;50.34
74376;HTU21D;62812;55.188;61.302;2023-10-09T09:54:12;12.55;50.61
74376;HTU21D;62812;55.188;61.302;2023-10-09T09:56:46;12.45;51.66
74376;HTU21D;62812;55.188;61.302;2023-10-09T09:59:41;12.35;53.21
74376;HTU21D;62812;55.188;61.302;2023-10-09T10:02:26;12.44;52.59
74376;HTU21D;62812;55.188;61.302;2023-10-09T10:04:59;12.45;51.66
74376;HTU21D;62812;55.188;61.302;2023-10-09T10:07:35;12.56;56.41
74376;HTU21D;62812;55.188;61.302;2023-10-09T10:12:55;12.65;56.13
74376;HTU21D;62812;55.188;61.302;2023-10-09T10:16:00;12.52;53.34
74376;HTU21D;62812;55.188;61.302;2023-10-09T10:18:34;12.51;56.31
74376;HTU21D;62812;55.188;61.302;2023-10-09T10:21:20;12.55;48.70
74376;HTU21D;62812;55.188;61.302;2023-10-09T10:24:01;12.51;51.83
74376;HTU21D;62812;55.188;61.302;2023-10-09T10:26:41;12.46;45.76
74376;HTU21D;62812;55.188;61.302;2023-10-09T10:29:15;12.34;48.62
74376;HTU21D;62812;55.188;61.302;2023-10-09T10:32:01;12.16;47.37
74376;HTU21D;62812;55.188;61.302;2023-10-09T10:34:55;11.96;46.40
74376;HTU21D;62812;55.188;61.302;2023-10-09T10:37:37;11.87;42.58
74376;HTU21D;62812;55.188;61.302;2023-10-09T10:40:13;11.87;43.48
74376;HTU21D;62812;55.188;61.302;2023-10-09T10:42:47;11.77;51.74
74376;HTU21D;62812;55.188;61.302;2023-10-09T10:45:35;11.83;49.00
74376;HTU21D;62812;55.188;61.302;2023-10-09T10:48:02;11.83;45.55
74376;HTU21D;62812;55.188;61.302;2023-10-09T10:50:37;11.89;50.62
74376;HTU21D;62812;55.188;61.302;2023-10-09T10:53:11;11.91;46.78
74376;HTU21D;62812;55.188;61.302;2023-10-09T10:55:54;11.92;47.57
74376;HTU21D;62812;55.188;61.302;2023-10-09T10:58:22;11.90;45.45
74376;HTU21D;62812;55.188;61.302;2023-10-09T11:01:03;11.87;48.42
74376;HTU21D;62812;55.188;61.302;2023-10-09T11:03:42;11.79;46.12
74376;HTU21D;62812;55.188;61.302;2023-10-09T11:06:30;11.81;50.70
74376;HTU21D;62812;55.188;61.302;2023-10-09T11:09:09;11.78;52.40
74376;HTU21D;62812;55.188;61.302;2023-10-09T11:11:49;11.71;45.44
74376;HTU21D;62812;55.188;61.302;2023-10-09T11:14:16;11.70;53.08
74376;HTU21D;62812;55.188;61.302;2023-10-09T11:16:55;11.73;45.26
74376;HTU21D;62812;55.188;61.302;2023-10-09T11:19:31;11.63;44.55
74376;HTU21D;62812;55.188;61.302;2023-10-09T11:22:07;11.61;46.67
74376;HTU21D;62812;55.188;61.302;2023-10-09T11:24:34;11.61;45.93
74376;HTU21D;62812;55.188;61.302;2023-10-09T11:27:02;11.68;51.53
74376;HTU21D;62812;55.188;61.302;2023-10-09T11:29:33;11.72;52.16
74376;HTU21D;62812;55.188;61.302;2023-10-09T11:32:08;11.66;51.23
74376;HTU21D;62812;55.188;61.302;2023-10-09T11:34:44;11.62;51.70
74376;HTU21D;62812;55.188;61.302;2023-10-09T11:37:23;11.61;52.55
74376;HTU21D;62812;55.188;61.302;2023-10-09T11:39:56;11.61;50.55
74376;HTU21D;62812;55.188;61.302;2023-10-09T11:42:25;11.66;52.96
74376;HTU21D;62812;55.188;61.302;2023-10-09T11:45:20;11.58;54.78
74376;HTU21D;62812;55.188;61.302;2023-10-09T11:47:47;11.47;48.29
74376;HTU21D;62812;55.188;61.302;2023-10-09T11:50:51;11.42;52.76
74376;HTU21D;62812;55.188;61.302;2023-10-09T11:53:39;11.38;47.77
74376;HTU21D;62812;55.188;61.302;2023-10-09T11:56:10;11.28;45.32
74376;HTU21D;62812;55.188;61.302;2023-10-09T11:58:40;11.13;47.62
74376;HTU21D;62812;55.188;61.302;2023-10-09T12:01:12;11.15;55.97
74376;HTU21D;62812;55.188;61.302;2023-10-09T12:03:50;11.20;56.04
74376;HTU21D;62812;55.188;61.302;2023-10-09T12:06:17;11.26;53.85
74376;HTU21D;62812;55.188;61.302;2023-10-09T12:08:47;11.26;46.02
74376;HTU21D;62812;55.188;61.302;2023-10-09T12:11:14;11.16;53.94
74376;HTU21D;62812;55.188;61.302;2023-10-09T12:13:48;11.13;51.71
74376;HTU21D;62812;55.188;61.302;2023-10-09T12:16:15;11.09;52.98
74376;HTU21D;62812;55.188;61.302;2023-10-09T12:18:43;10.97;43.99
74376;HTU21D;62812;55.188;61.302;2023-10-09T12:21:20;10.89;48.89
74376;HTU21D;62812;55.188;61.302;2023-10-09T12:23:51;10.82;47.31
74376;HTU21D;62812;55.188;61.302;2023-10-09T12:26:19;10.65;44.53
74376;HTU21D;62812;55.188;61.302;2023-10-09T12:28:46;10.56;49.53
74376;HTU21D;62812;55.188;61.302;2023-10-09T12:31:16;10.53;48.19
74376;HTU21D;62812;55.188;61.302;2023-10-09T12:33:47;10.59;54.13
74376;HTU21D;62812;55.188;61.302;2023-10-09T12:36:15;10.46;45.05
74376;HTU21D;62812;55.188;61.302;2023-10-09T12:38:47;10.48;46.08
74376;HTU21D;62812;55.188;61.302;2023-10-09T12:41:21;10.40;46.28
74376;HTU21D;62812;55.188;61.302;2023-10-09T12:44:00;10.38;54.33
74376;HTU21D;62812;55.188;61.302;2023-10-09T12:46:27;10.42;53.74
74376;HTU21D;62812;55.188;61.302;2023-10-09T12:48:58;10.37;56.19
74376;HTU21D;62812;55.188;61.302;2023-10-09T12:51:26;10.41;51.11
74376;HTU21D;62812;55.188;61.302;2023-10-09T12:53:55;10.43;59.22
74376;HTU21D;62812;55.188;61.302;2023-10-09T12:56:29;10.52;52.68
74376;HTU21D;62812;55.188;61.302;2023-10-09T12:59:05;10.41;45.12
74376;HTU21D;62812;55.188;61.302;2023-10-09T13:01:35;10.34;52.72
74376;HTU21D;62812;55.188;61.302;2023-10-09T13:04:12;10.36;54.71
74376;HTU21D;62812;55.188;61.302;2023-10-09T13:06:42;10.28;56.76
74376;HTU21D;62812;55.188;61.302;2023-10-09T13:09:12;10.24;45.61
74376;HTU21D;62812;55.188;61.302;2023-10-09T13:11:44;10.19;59.05
74376;HTU21D;62812;55.188;61.302;2023-10-09T13:14:16;10.12;46.44
74376;HTU21D;62812;55.188;61.302;2023-10-09T13:16:51;10.04;53.30
74376;HTU21D;62812;55.188;61.302;2023-10-09T13:19:20;10.01;51.81
74376;HTU21D;62812;55.188;61.302;2023-10-09T13:21:54;9.90;45.86
74376;HTU21D;62812;55.188;61.302;2023-10-09T13:24:34;9.82;47.83
74376;HTU21D;62812;55.188;61.302;2023-10-09T13:27:07;9.82;49.74
74376;HTU21D;62812;55.188;61.302;2023-10-09T13:29:38;9.78;46.76
74376;HTU21D;62812;55.188;61.302;2023-10-09T13:32:07;9.71;49.60
74376;HTU21D;62812;55.188;61.302;2023-10-09T13:34:43;9.65;59.96
74376;HTU21D;62812;55.188;61.302;2023-10-09T13:37:13;9.63;47.68
74376;HTU21D;62812;55.188;61.302;2023-10-09T13:39:43;9.59;47.67
74376;HTU21D;62812;55.188;61.302;2023-10-09T13:42:20;9.54;47.90
74376;HTU21D;62812;55.188;61.302;2023-10-09T13:44:51;9.54;48.24
74376;HTU21D;62812;55.188;61.302;2023-10-09T13:47:20;9.53;48.88
74376;HTU21D;62812;55.188;61.302;2023-10-09T13:49:47;9.45;47.47
74376;HTU21D;62812;55.188;61.302;2023-10-09T13:52:36;9.40;52.40
74376;HTU21D;62812;55.188;61.302;2023-10-09T13:55:06;9.38;53.93
74376;HTU21D;62812;55.188;61.302;2023-10-09T13:57:44;9.36;55.43
74376;HTU21D;62812;55.188;61.302;2023-10-09T14:00:13;9.33;50.22
74376;HTU21D;62812;55.188;61.302;2023-10-09T14:02:46;9.33;47.79
74376;HTU21D;62812;55.188;61.302;2023-10-09T14:05:13;9.32;56.50
74376;HTU21D;62812;55.188;61.302;2023-10-09T14:07:42;9.26;47.98
74376;HTU21D;62812;55.188;61.302;2023-10-09T14:10:09;9.19;48.92
74376;HTU21D;62812;55.188;61.302;2023-10-09T14:12:46;9.09;48.57
74376;HTU21D;62812;55.188;61.302;2023-10-09T14:15:14;9.02;48.96
74376;HTU21D;62812;55.188;61.302;2023-10-09T14:17:43;8.98;50.85
74376;HTU21D;62812;55.188;61.302;2023-10-09T14:20:17;9.02;57.38
74376;HTU21D;62812;55.188;61.302;2023-10-09T14:23:00;9.00;51.47
74376;HTU21D;62812;55.188;61.302;2023-10-09T14:25:33;8.98;48.96
74376;HTU21D;62812;55.188;61.302;2023-10-09T14:28:08;8.89;48.83
74376;HTU21D;62812;55.188;61.302;2023-10-09T14:30:37;8.83;48.88
74376;HTU21D;62812;55.188;61.302;2023-10-09T14:33:11;8.73;48.94
74376;HTU21D;62812;55.188;61.302;2023-10-09T14:35:49;8.66;49.16
74376;HTU21D;62812;55.188;61.302;2023-10-09T14:38:19;8.63;50.56
74376;HTU21D;62812;55.188;61.302;2023-10-09T14:40:53;8.61;48.77
74376;HTU21D;62812;55.188;61.302;2023-10-09T14:43:28;8.59;49.39
74376;HTU21D;62812;55.188;61.302;2023-10-09T14:45:56;8.57;49.24
74376;HTU21D;62812;55.188;61.302;2023-10-09T14:48:24;8.53;49.14
74376;HTU21D;62812;55.188;61.302;2023-10-09T14:50:55;8.57;50.42
74376;HTU21D;62812;55.188;61.302;2023-10-09T14:53:31;8.58;49.99
74376;HTU21D;62812;55.188;61.302;2023-10-09T14:55:57;8.57;49.52
74376;HTU21D;62812;55.188;61.302;2023-10-09T14:58:26;8.53;52.94
74376;HTU21D;62812;55.188;61.302;2023-10-09T15:00:57;8.57;53.14
74376;HTU21D;62812;55.188;61.302;2023-10-09T15:03:25;8.56;52.06
74376;HTU21D;62812;55.188;61.302;2023-10-09T15:05:58;8.59;55.51
74376;HTU21D;62812;55.188;61.302;2023-10-09T15:08:31;8.59;50.62
74376;HTU21D;62812;55.188;61.302;2023-10-09T15:11:06;8.56;50.65
74376;HTU21D;62812;55.188;61.302;2023-10-09T15:13:34;8.56;57.11
74376;HTU21D;62812;55.188;61.302;2023-10-09T15:16:05;8.62;53.21
74376;HTU21D;62812;55.188;61.302;2023-10-09T15:18:32;8.65;52.97
74376;HTU21D;62812;55.188;61.302;2023-10-09T15:21:03;8.60;51.33
74376;HTU21D;62812;55.188;61.302;2023-10-09T15:23:29;8.61;53.14
74376;HTU21D;62812;55.188;61.302;2023-10-09T15:26:00;8.63;53.07
74376;HTU21D;62812;55.188;61.302;2023-10-09T15:28:27;8.66;57.96
74376;HTU21D;62812;55.188;61.302;2023-10-09T15:30:58;8.72;55.71
74376;HTU21D;62812;55.188;61.302;2023-10-09T15:33:27;8.76;55.36
74376;HTU21D;62812;55.188;61.302;2023-10-09T15:35:57;8.73;55.20
74376;HTU21D;62812;55.188;61.302;2023-10-09T15:38:25;8.73;55.45
74376;HTU21D;62812;55.188;61.302;2023-10-09T15:40:55;8.74;53.19
74376;HTU21D;62812;55.188;61.302;2023-10-09T15:43:22;8.71;51.37
74376;HTU21D;62812;55.188;61.302;2023-10-09T15:45:49;8.71;56.80
74376;HTU21D;62812;55.188;61.302;2023-10-09T15:48:16;8.68;52.33
74376;HTU21D;62812;55.188;61.302;2023-10-09T15:50:52;8.68;52.34
74376;HTU21D;62812;55.188;61.302;2023-10-09T15:53:18;8.65;52.03
74376;HTU21D;62812;55.188;61.302;2023-10-09T15:55:47;8.59;52.45
74376;HTU21D;62812;55.188;61.302;2023-10-09T15:58:18;8.50;52.94